createdAt,value
2022-11-25T00:00:58.251Z,4.91
2022-11-25T00:01:58.301Z,4.78
2022-11-25T00:02:58.428Z,4.78
2022-11-25T00:03:58.305Z,4.78
2022-11-25T00:04:58.326Z,4.84
2022-11-25T00:05:58.341Z,4.78
2022-11-25T00:06:58.365Z,4.82
2022-11-25T00:07:58.404Z,4.80
2022-11-25T00:08:58.394Z,4.91
2022-11-25T00:09:58.413Z,4.82
2022-11-25T00:10:58.433Z,4.85
2022-11-25T00:11:58.452Z,4.94
2022-11-25T00:12:58.468Z,4.89
2022-11-25T00:13:58.496Z,4.91
2022-11-25T00:14:58.508Z,4.92
2022-11-25T00:15:58.526Z,4.80
2022-11-25T00:16:58.578Z,4.80
2022-11-25T00:17:58.561Z,4.78
2022-11-25T00:18:58.579Z,4.80
2022-11-25T00:19:58.608Z,4.75
2022-11-25T00:20:58.617Z,4.72
2022-11-25T00:21:58.633Z,4.75
2022-11-25T00:22:58.653Z,4.72
2022-11-25T00:23:58.677Z,4.70
2022-11-25T00:24:58.689Z,4.72
2022-11-25T00:25:58.705Z,4.73
2022-11-25T00:26:58.727Z,4.67
2022-11-25T00:27:58.746Z,4.63
2022-11-25T00:28:58.765Z,4.70
2022-11-25T00:29:58.780Z,4.84
2022-11-25T00:30:58.796Z,4.85
2022-11-25T00:31:58.858Z,4.82
2022-11-25T00:32:58.835Z,4.73
2022-11-25T00:33:58.852Z,4.82
2022-11-25T00:34:58.869Z,4.75
2022-11-25T00:35:58.887Z,4.75
2022-11-25T00:36:58.915Z,4.85
2022-11-25T00:37:58.945Z,4.89
2022-11-25T00:38:58.962Z,4.91
2022-11-25T00:39:58.971Z,4.96
2022-11-25T00:40:58.978Z,5.00
2022-11-25T00:41:59.001Z,4.99
2022-11-25T00:42:59.020Z,5.02
2022-11-25T00:43:59.037Z,5.00
2022-11-25T00:44:59.054Z,4.94
2022-11-25T00:45:59.103Z,4.97
2022-11-25T00:46:59.109Z,4.97
2022-11-25T00:47:59.111Z,5.00
2022-11-25T00:48:59.126Z,4.96
2022-11-25T00:49:59.143Z,4.99
2022-11-25T00:50:59.162Z,4.92
2022-11-25T00:51:59.185Z,4.92
2022-11-25T00:52:59.202Z,4.88
2022-11-25T00:53:59.399Z,4.92
2022-11-25T00:54:59.238Z,4.94
2022-11-25T00:55:59.257Z,4.88
2022-11-25T00:56:59.271Z,5.00
2022-11-25T00:57:59.291Z,4.99
2022-11-25T00:58:59.308Z,5.02
2022-11-25T00:59:59.329Z,5.04
2022-11-25T01:00:59.428Z,5.00
2022-11-25T01:01:59.451Z,5.00
2022-11-25T01:02:59.385Z,5.02
2022-11-25T01:03:59.404Z,5.04
2022-11-25T01:04:59.436Z,5.07
2022-11-25T01:05:59.446Z,5.12
2022-11-25T01:06:59.469Z,5.03
2022-11-25T01:07:59.478Z,5.12
2022-11-25T01:08:59.490Z,5.07
2022-11-25T01:09:59.510Z,5.00
2022-11-25T01:10:59.528Z,5.12
2022-11-25T01:11:59.553Z,5.18
2022-11-25T01:12:59.562Z,5.13
2022-11-25T01:14:01.592Z,5.18
2022-11-25T01:14:59.600Z,5.27
2022-11-25T01:15:59.638Z,5.38
2022-11-25T01:16:59.639Z,5.36
2022-11-25T01:17:59.657Z,5.31
2022-11-25T01:18:59.676Z,5.35
2022-11-25T01:19:59.706Z,5.43
2022-11-25T01:20:59.709Z,5.39
2022-11-25T01:21:59.733Z,5.38
2022-11-25T01:22:59.761Z,5.42
2022-11-25T01:23:59.769Z,5.39
2022-11-25T01:24:59.790Z,5.45
2022-11-25T01:25:59.808Z,5.49
2022-11-25T01:26:59.833Z,5.46
2022-11-25T01:27:59.852Z,5.49
2022-11-25T01:28:59.874Z,5.45
2022-11-25T01:29:59.884Z,5.60
2022-11-25T01:30:59.899Z,5.58
2022-11-25T01:31:59.984Z,5.58
2022-11-25T01:32:59.941Z,5.57
2022-11-25T01:33:59.957Z,5.57
2022-11-25T01:34:59.973Z,5.61
2022-11-25T01:35:59.990Z,5.61
2022-11-25T01:37:00.030Z,5.60
2022-11-25T01:38:00.029Z,5.58
2022-11-25T01:39:00.060Z,5.63
2022-11-25T01:40:00.067Z,5.71
2022-11-25T01:41:00.087Z,5.61
2022-11-25T01:42:00.134Z,5.74
2022-11-25T01:43:00.126Z,5.71
2022-11-25T01:44:00.160Z,5.78
2022-11-25T01:45:00.163Z,5.76
2022-11-25T01:46:00.234Z,5.75
2022-11-25T01:47:00.201Z,5.76
2022-11-25T01:48:00.219Z,5.78
2022-11-25T01:49:00.236Z,5.78
2022-11-25T01:50:00.255Z,5.83
2022-11-25T01:51:00.297Z,5.75
2022-11-25T01:52:00.295Z,5.79
2022-11-25T01:53:00.311Z,5.79
2022-11-25T01:54:00.328Z,5.83
2022-11-25T01:55:00.349Z,5.85
2022-11-25T01:56:00.368Z,5.85
2022-11-25T01:57:00.386Z,5.86
2022-11-25T01:58:00.405Z,5.78
2022-11-25T01:59:00.429Z,5.82
2022-11-25T02:00:00.447Z,5.82
2022-11-25T02:01:00.520Z,5.85
2022-11-25T02:02:00.562Z,5.85
2022-11-25T02:03:00.509Z,5.83
2022-11-25T02:04:00.519Z,5.82
2022-11-25T02:05:00.570Z,5.79
2022-11-25T02:06:00.591Z,5.82
2022-11-25T02:07:00.582Z,5.86
2022-11-25T02:08:00.601Z,5.81
2022-11-25T02:09:00.618Z,5.78
2022-11-25T02:10:00.636Z,5.85
2022-11-25T02:11:00.653Z,5.86
2022-11-25T02:12:00.688Z,5.82
2022-11-25T02:13:00.693Z,5.86
2022-11-25T02:14:00.711Z,5.94
2022-11-25T02:15:00.735Z,5.91
2022-11-25T02:16:00.856Z,5.94
2022-11-25T02:17:00.810Z,5.99
2022-11-25T02:18:00.788Z,5.90
2022-11-25T02:19:00.823Z,5.96
2022-11-25T02:20:00.822Z,5.93
2022-11-25T02:21:00.841Z,5.99
2022-11-25T02:22:00.860Z,5.97
2022-11-25T02:23:00.880Z,5.94
2022-11-25T02:24:00.897Z,5.96
2022-11-25T02:25:00.922Z,5.96
2022-11-25T02:26:00.947Z,5.99
2022-11-25T02:27:00.962Z,6.01
2022-11-25T02:28:00.974Z,5.99
2022-11-25T02:29:00.992Z,6.09
2022-11-25T02:30:01.021Z,6.00
2022-11-25T02:31:01.032Z,6.03
2022-11-25T02:32:01.131Z,5.97
2022-11-25T02:33:01.070Z,6.01
2022-11-25T02:34:01.088Z,6.03
2022-11-25T02:35:01.109Z,5.94
2022-11-25T02:36:01.128Z,5.99
2022-11-25T02:37:01.145Z,5.96
2022-11-25T02:38:01.167Z,5.96
2022-11-25T02:39:01.187Z,5.99
2022-11-25T02:40:01.206Z,6.00
2022-11-25T02:41:01.223Z,5.99
2022-11-25T02:42:01.248Z,6.00
2022-11-25T02:43:01.261Z,6.00
2022-11-25T02:44:01.278Z,5.91
2022-11-25T02:45:01.304Z,5.91
2022-11-25T02:46:01.394Z,5.94
2022-11-25T02:47:01.335Z,5.91
2022-11-25T02:48:01.393Z,5.86
2022-11-25T02:49:08.838Z,5.89
2022-11-25T02:50:01.394Z,5.82
2022-11-25T02:51:08.578Z,5.93
2022-11-25T02:53:05.901Z,5.93
2022-11-25T02:54:05.435Z,5.85
2022-11-25T02:56:09.444Z,5.85
2022-11-25T02:57:09.463Z,5.96
2022-11-25T02:59:13.947Z,5.91
2022-11-25T03:00:13.471Z,5.93
2022-11-25T03:02:17.593Z,5.93
2022-11-25T03:03:17.483Z,5.99
2022-11-25T03:05:21.986Z,6.01
2022-11-25T03:06:21.487Z,6.01
2022-11-25T03:08:25.486Z,6.01
2022-11-25T03:09:25.499Z,6.08
2022-11-25T03:11:18.968Z,6.15
2022-11-25T03:12:18.485Z,6.15
2022-11-25T03:14:22.452Z,6.22
2022-11-25T03:15:22.464Z,6.18
2022-11-25T03:17:26.950Z,6.34
2022-11-25T03:18:26.488Z,6.36
2022-11-25T03:20:30.493Z,6.37
2022-11-25T03:21:30.499Z,6.37
2022-11-25T03:23:34.988Z,6.33
2022-11-25T03:24:34.886Z,6.44
2022-11-25T03:26:38.522Z,6.54
2022-11-25T03:27:38.527Z,6.43
2022-11-25T03:29:43.027Z,6.41
2022-11-25T03:30:42.555Z,6.49
2022-11-25T03:32:46.550Z,6.56
2022-11-25T03:33:46.562Z,6.52
2022-11-25T03:35:51.045Z,6.49
2022-11-25T03:36:50.603Z,6.58
2022-11-25T03:38:54.597Z,6.59
2022-11-25T03:39:54.594Z,6.58
2022-11-25T03:40:54.615Z,6.71
2022-11-25T03:41:54.654Z,6.64
2022-11-25T03:42:54.653Z,6.67
2022-11-25T03:43:54.675Z,6.71
2022-11-25T03:44:54.687Z,6.74
2022-11-25T03:45:54.749Z,6.64
2022-11-25T03:46:54.727Z,6.66
2022-11-25T03:47:54.746Z,6.64
2022-11-25T03:48:54.768Z,6.67
2022-11-25T03:49:54.782Z,6.67
2022-11-25T03:50:54.803Z,6.70
2022-11-25T03:51:54.828Z,6.70
2022-11-25T03:52:54.842Z,6.74
2022-11-25T03:53:54.862Z,6.79
2022-11-25T03:54:54.884Z,6.79
2022-11-25T03:55:54.899Z,6.71
2022-11-25T03:56:54.921Z,6.71
2022-11-25T03:57:54.938Z,6.71
2022-11-25T03:58:54.960Z,6.84
2022-11-25T03:59:54.989Z,6.80
2022-11-25T04:00:55.058Z,6.79
2022-11-25T04:01:55.050Z,6.79
2022-11-25T04:02:55.134Z,6.77
2022-11-25T04:03:55.053Z,6.88
2022-11-25T04:04:55.082Z,6.87
2022-11-25T04:05:55.096Z,6.84
2022-11-25T04:06:55.114Z,6.74
2022-11-25T04:07:58.035Z,6.77
2022-11-25T04:08:55.154Z,6.77
2022-11-25T04:09:55.172Z,6.88
2022-11-25T04:10:55.189Z,6.81
2022-11-25T04:11:55.209Z,6.81
2022-11-25T04:12:55.227Z,6.84
2022-11-25T04:13:55.250Z,6.92
2022-11-25T04:14:55.270Z,6.87
2022-11-25T04:15:55.290Z,6.84
2022-11-25T04:16:55.379Z,6.85
2022-11-25T04:17:55.330Z,6.84
2022-11-25T04:18:55.348Z,6.87
2022-11-25T04:19:55.367Z,6.95
2022-11-25T04:20:55.391Z,6.94
2022-11-25T04:21:55.404Z,7.02
2022-11-25T04:22:55.425Z,6.99
2022-11-25T04:23:55.447Z,6.94
2022-11-25T04:24:55.462Z,7.02
2022-11-25T04:25:55.486Z,7.05
2022-11-25T04:26:55.519Z,7.13
2022-11-25T04:27:55.524Z,7.09
2022-11-25T04:28:55.546Z,7.05
2022-11-25T04:29:55.566Z,7.06
2022-11-25T04:30:55.653Z,7.12
2022-11-25T04:31:55.605Z,7.15
2022-11-25T04:32:55.627Z,7.12
2022-11-25T04:33:55.646Z,7.15
2022-11-25T04:34:55.664Z,7.13
2022-11-25T04:35:55.684Z,7.15
2022-11-25T04:36:55.704Z,7.10
2022-11-25T04:37:55.725Z,7.10
2022-11-25T04:38:55.743Z,7.09
2022-11-25T04:39:55.761Z,7.10
2022-11-25T04:40:55.783Z,7.13
2022-11-25T04:41:55.804Z,7.13
2022-11-25T04:43:02.403Z,7.12
2022-11-25T04:43:55.840Z,7.17
2022-11-25T04:45:14.456Z,7.13
2022-11-25T04:46:13.472Z,7.12
2022-11-25T04:46:55.948Z,7.06
2022-11-25T04:47:55.922Z,7.05
2022-11-25T04:48:55.939Z,7.07
2022-11-25T04:49:55.958Z,7.06
2022-11-25T04:50:55.977Z,7.06
2022-11-25T04:51:55.997Z,7.07
2022-11-25T04:52:56.020Z,7.06
2022-11-25T04:53:56.039Z,7.10
2022-11-25T04:54:56.061Z,7.06
2022-11-25T04:55:56.080Z,7.10
2022-11-25T04:56:56.098Z,7.07
2022-11-25T04:57:56.118Z,7.05
2022-11-25T04:58:56.138Z,7.10
2022-11-25T04:59:56.161Z,7.02
2022-11-25T05:00:56.217Z,6.97
2022-11-25T05:01:56.199Z,6.95
2022-11-25T05:02:56.220Z,7.07
2022-11-25T05:03:57.774Z,7.06
2022-11-25T05:04:56.257Z,7.05
2022-11-25T05:05:56.276Z,6.97
2022-11-25T05:06:56.297Z,7.06
2022-11-25T05:07:56.392Z,7.15
2022-11-25T05:08:56.334Z,7.06
2022-11-25T05:09:56.354Z,7.10
2022-11-25T05:10:56.372Z,7.07
2022-11-25T05:11:56.390Z,7.09
2022-11-25T05:12:56.483Z,7.05
2022-11-25T05:13:56.433Z,7.10
2022-11-25T05:14:56.453Z,7.05
2022-11-25T05:15:56.475Z,7.13
2022-11-25T05:16:56.562Z,7.12
2022-11-25T05:17:56.513Z,7.10
2022-11-25T05:18:56.531Z,7.10
2022-11-25T05:19:56.549Z,7.16
2022-11-25T05:20:56.570Z,7.12
2022-11-25T05:21:56.587Z,7.16
2022-11-25T05:22:56.610Z,7.09
2022-11-25T05:23:56.631Z,7.05
2022-11-25T05:24:56.649Z,7.13
2022-11-25T05:25:56.670Z,7.02
2022-11-25T05:26:56.684Z,7.03
2022-11-25T05:27:56.707Z,7.10
2022-11-25T05:28:56.726Z,6.97
2022-11-25T05:29:56.745Z,7.09
2022-11-25T05:30:56.781Z,7.10
2022-11-25T05:31:56.788Z,7.05
2022-11-25T05:32:56.807Z,7.06
2022-11-25T05:33:56.827Z,7.13
2022-11-25T05:34:56.846Z,7.13
2022-11-25T05:35:56.865Z,7.12
2022-11-25T05:36:56.886Z,7.13
2022-11-25T05:37:56.907Z,7.12
2022-11-25T05:38:56.926Z,7.07
2022-11-25T05:39:56.945Z,7.24
2022-11-25T05:40:56.977Z,7.21
2022-11-25T05:41:56.998Z,7.13
2022-11-25T05:42:57.004Z,7.15
2022-11-25T05:43:57.027Z,7.16
2022-11-25T05:44:57.044Z,7.23
2022-11-25T05:45:57.109Z,7.21
2022-11-25T05:46:57.082Z,7.21
2022-11-25T05:47:57.101Z,7.25
2022-11-25T05:48:57.120Z,7.21
2022-11-25T05:49:57.144Z,7.16
2022-11-25T05:50:57.162Z,7.21
2022-11-25T05:51:57.182Z,7.27
2022-11-25T05:52:57.207Z,7.13
2022-11-25T05:53:57.222Z,7.27
2022-11-25T05:54:57.692Z,7.23
2022-11-25T05:55:57.265Z,7.21
2022-11-25T05:56:57.282Z,7.13
2022-11-25T05:57:57.302Z,7.23
2022-11-25T05:58:57.336Z,7.15
2022-11-25T05:59:57.340Z,7.24
2022-11-25T06:00:57.360Z,7.24
2022-11-25T06:01:57.416Z,7.21
2022-11-25T06:02:57.505Z,7.21
2022-11-25T06:03:57.421Z,7.25
2022-11-25T06:04:57.441Z,7.24
2022-11-25T06:05:57.460Z,7.28
2022-11-25T06:06:57.481Z,7.25
2022-11-25T06:07:57.544Z,7.32
2022-11-25T06:08:57.520Z,7.32
2022-11-25T06:10:01.598Z,7.34
2022-11-25T06:10:57.561Z,7.39
2022-11-25T06:11:57.579Z,7.31
2022-11-25T06:12:57.602Z,7.23
2022-11-25T06:13:57.625Z,7.34
2022-11-25T06:14:57.638Z,7.32
2022-11-25T06:15:57.689Z,7.25
2022-11-25T06:16:57.675Z,7.30
2022-11-25T06:17:57.707Z,7.21
2022-11-25T06:18:57.717Z,7.28
2022-11-25T06:19:57.740Z,7.27
2022-11-25T06:20:57.757Z,7.23
2022-11-25T06:21:57.779Z,7.23
2022-11-25T06:22:57.796Z,7.24
2022-11-25T06:23:57.816Z,7.32
2022-11-25T06:25:03.273Z,7.30
2022-11-25T06:25:57.857Z,7.32
2022-11-25T06:26:57.874Z,7.28
2022-11-25T06:28:12.377Z,7.32
2022-11-25T06:28:57.916Z,7.40
2022-11-25T06:29:57.938Z,7.35
2022-11-25T06:30:58.015Z,7.34
2022-11-25T06:31:57.997Z,7.34
2022-11-25T06:32:57.992Z,7.42
2022-11-25T06:33:58.015Z,7.40
2022-11-25T06:34:58.036Z,7.46
2022-11-25T06:35:58.058Z,7.35
2022-11-25T06:36:58.075Z,7.45
2022-11-25T06:37:58.096Z,7.34
2022-11-25T06:38:58.116Z,7.40
2022-11-25T06:39:58.135Z,7.42
2022-11-25T06:41:00.405Z,7.42
2022-11-25T06:41:58.175Z,7.46
2022-11-25T06:42:58.194Z,7.45
2022-11-25T06:43:58.216Z,7.45
2022-11-25T06:44:58.238Z,7.45
2022-11-25T06:45:58.296Z,7.49
2022-11-25T06:46:58.339Z,7.50
2022-11-25T06:47:58.294Z,7.48
2022-11-25T06:48:58.318Z,7.45
2022-11-25T06:49:58.337Z,7.53
2022-11-25T06:50:58.356Z,7.46
2022-11-25T06:51:58.377Z,7.50
2022-11-25T06:52:58.395Z,7.53
2022-11-25T06:53:58.421Z,7.49
2022-11-25T06:54:58.435Z,7.53
2022-11-25T06:55:58.453Z,7.48
2022-11-25T06:56:58.475Z,7.58
2022-11-25T06:58:13.856Z,7.52
2022-11-25T06:58:58.514Z,7.57
2022-11-25T06:59:58.536Z,7.61
2022-11-25T07:00:58.558Z,7.64
2022-11-25T07:01:58.636Z,7.69
2022-11-25T07:02:58.650Z,7.68
2022-11-25T07:03:58.620Z,7.75
2022-11-25T07:04:58.650Z,7.77
2022-11-25T07:05:58.657Z,7.68
2022-11-25T07:06:58.676Z,7.67
2022-11-25T07:07:58.733Z,7.72
2022-11-25T07:08:58.716Z,7.74
2022-11-25T07:09:58.736Z,7.71
2022-11-25T07:10:58.756Z,7.69
2022-11-25T07:11:58.780Z,7.83
2022-11-25T07:12:58.794Z,7.82
2022-11-25T07:13:58.818Z,7.83
2022-11-25T07:14:58.846Z,7.86
2022-11-25T07:15:58.914Z,7.86
2022-11-25T07:16:58.877Z,7.85
2022-11-25T07:17:58.901Z,7.80
2022-11-25T07:18:58.919Z,7.93
2022-11-25T07:19:58.939Z,7.93
2022-11-25T07:20:58.978Z,7.97
2022-11-25T07:21:58.977Z,7.93
2022-11-25T07:22:58.998Z,7.90
2022-11-25T07:23:59.017Z,7.97
2022-11-25T07:24:59.038Z,7.98
2022-11-25T07:25:59.061Z,7.93
2022-11-25T07:26:59.079Z,7.97
2022-11-25T07:27:59.102Z,8.07
2022-11-25T07:28:59.122Z,8.05
2022-11-25T07:30:41.169Z,8.11
2022-11-25T07:31:59.190Z,8.10
2022-11-25T07:32:59.247Z,8.18
2022-11-25T07:33:59.221Z,8.16
2022-11-25T07:34:59.397Z,8.20
2022-11-25T07:35:59.269Z,8.20
2022-11-25T07:36:59.279Z,8.12
2022-11-25T07:37:59.303Z,8.18
2022-11-25T07:38:59.327Z,8.18
2022-11-25T07:39:59.341Z,8.19
2022-11-25T07:40:59.366Z,8.19
2022-11-25T07:41:59.383Z,8.22
2022-11-25T07:42:59.403Z,8.22
2022-11-25T07:43:59.434Z,8.26
2022-11-25T07:44:59.446Z,8.23
2022-11-25T07:45:59.512Z,8.20
2022-11-25T07:46:59.540Z,8.30
2022-11-25T07:47:59.510Z,8.34
2022-11-25T07:48:59.531Z,8.37
2022-11-25T07:49:59.546Z,8.41
2022-11-25T07:50:59.568Z,8.47
2022-11-25T07:51:59.639Z,8.40
2022-11-25T07:52:59.623Z,8.44
2022-11-25T07:53:59.631Z,8.50
2022-11-25T07:54:59.649Z,8.55
2022-11-25T07:55:59.669Z,8.55
2022-11-25T07:56:59.691Z,8.59
2022-11-25T07:57:59.715Z,8.63
2022-11-25T07:58:59.735Z,8.55
2022-11-25T07:59:59.753Z,8.59
2022-11-25T08:00:59.779Z,8.70
2022-11-25T08:01:59.823Z,8.70
2022-11-25T08:02:59.883Z,8.76
2022-11-25T08:03:59.839Z,8.74
2022-11-25T08:04:59.863Z,8.79
2022-11-25T08:05:59.880Z,8.65
2022-11-25T08:06:59.901Z,8.80
2022-11-25T08:08:00.006Z,8.77
2022-11-25T08:08:59.943Z,8.81
2022-11-25T08:09:59.967Z,8.76
2022-11-25T08:10:59.984Z,8.86
2022-11-25T08:12:00.002Z,8.84
2022-11-25T08:13:00.023Z,8.99
2022-11-25T08:14:00.061Z,8.99
2022-11-25T08:15:00.066Z,8.94
2022-11-25T08:16:00.134Z,8.98
2022-11-25T08:17:00.108Z,8.92
2022-11-25T08:18:00.127Z,9.05
2022-11-25T08:19:00.152Z,9.02
2022-11-25T08:20:00.174Z,9.14
2022-11-25T08:21:00.187Z,9.18
2022-11-25T08:22:00.221Z,9.14
2022-11-25T08:23:00.235Z,9.21
2022-11-25T08:24:00.253Z,9.20
2022-11-25T08:25:00.273Z,9.29
2022-11-25T08:26:00.295Z,9.26
2022-11-25T08:27:00.316Z,9.32
2022-11-25T08:28:00.337Z,9.31
2022-11-25T08:29:00.358Z,9.38
2022-11-25T08:30:00.382Z,9.46
2022-11-25T08:31:00.412Z,9.42
2022-11-25T08:32:00.435Z,9.48
2022-11-25T08:33:00.441Z,9.48
2022-11-25T08:34:00.463Z,9.48
2022-11-25T08:35:00.488Z,9.50
2022-11-25T08:36:00.505Z,9.54
2022-11-25T08:37:00.528Z,9.51
2022-11-25T08:38:00.553Z,9.66
2022-11-25T08:39:00.567Z,9.61
2022-11-25T08:40:01.159Z,9.61
2022-11-25T08:41:00.614Z,9.61
2022-11-25T08:42:00.631Z,9.79
2022-11-25T08:43:00.657Z,9.83
2022-11-25T08:44:00.677Z,9.79
2022-11-25T08:45:00.697Z,9.87
2022-11-25T08:46:00.740Z,9.89
2022-11-25T08:47:00.860Z,9.90
2022-11-25T08:48:00.762Z,9.93
2022-11-25T08:49:00.788Z,9.93
2022-11-25T08:50:00.801Z,9.90
2022-11-25T08:51:00.821Z,9.99
2022-11-25T08:52:00.848Z,9.93
2022-11-25T08:53:00.872Z,9.94
2022-11-25T08:54:00.888Z,10.01
2022-11-25T08:55:00.910Z,10.08
2022-11-25T08:56:00.929Z,10.04
2022-11-25T08:57:00.965Z,10.14
2022-11-25T08:58:00.971Z,10.04
2022-11-25T08:59:00.997Z,10.09
2022-11-25T09:00:01.016Z,10.11
2022-11-25T09:01:01.044Z,10.07
2022-11-25T09:02:01.180Z,10.12
2022-11-25T09:03:03.497Z,10.17
2022-11-25T09:04:01.102Z,10.25
2022-11-25T09:05:01.134Z,10.25
2022-11-25T09:06:01.149Z,10.26
2022-11-25T09:07:01.168Z,10.30
2022-11-25T09:08:01.226Z,10.38
2022-11-25T09:09:01.212Z,10.34
2022-11-25T09:10:01.233Z,10.38
2022-11-25T09:11:01.342Z,10.44
2022-11-25T09:12:01.279Z,10.36
2022-11-25T09:13:01.300Z,10.42
2022-11-25T09:14:01.372Z,10.42
2022-11-25T09:15:01.342Z,10.51
2022-11-25T09:16:01.407Z,10.51
2022-11-25T09:17:01.385Z,10.51
2022-11-25T09:18:01.405Z,10.51
2022-11-25T09:19:01.429Z,10.51
2022-11-25T09:20:01.450Z,10.53
2022-11-25T09:21:01.472Z,10.59
2022-11-25T09:22:01.495Z,10.56
2022-11-25T09:23:01.516Z,10.53
2022-11-25T09:24:01.536Z,10.55
2022-11-25T09:25:01.562Z,10.61
2022-11-25T09:26:01.577Z,10.63
2022-11-25T09:27:01.603Z,10.64
2022-11-25T09:28:01.631Z,10.68
2022-11-25T09:29:01.649Z,10.63
2022-11-25T09:30:01.670Z,10.67
2022-11-25T09:31:01.744Z,10.66
2022-11-25T09:32:01.754Z,10.76
2022-11-25T09:33:01.737Z,10.60
2022-11-25T09:34:01.758Z,10.74
2022-11-25T09:35:01.779Z,10.74
2022-11-25T09:36:01.803Z,10.79
2022-11-25T09:37:01.824Z,10.66
2022-11-25T09:38:01.847Z,10.76
2022-11-25T09:39:01.874Z,10.71
2022-11-25T09:40:01.889Z,10.74
2022-11-25T09:41:01.913Z,10.68
2022-11-25T09:42:01.942Z,10.71
2022-11-25T09:43:01.957Z,10.82
2022-11-25T09:44:01.979Z,10.81
2022-11-25T09:45:01.997Z,10.82
2022-11-25T09:46:02.067Z,10.68
2022-11-25T09:47:02.042Z,10.84
2022-11-25T09:48:02.065Z,10.85
2022-11-25T09:49:02.090Z,10.84
2022-11-25T09:50:02.110Z,10.74
2022-11-25T09:51:02.132Z,10.78
2022-11-25T09:52:02.154Z,10.89
2022-11-25T09:53:02.176Z,10.89
2022-11-25T09:54:02.197Z,10.96
2022-11-25T09:55:02.217Z,11.00
2022-11-25T09:56:02.245Z,10.94
2022-11-25T09:57:02.270Z,11.00
2022-11-25T09:58:02.292Z,10.89
2022-11-25T09:59:02.308Z,11.04
2022-11-25T10:00:02.333Z,11.03
2022-11-25T10:01:02.354Z,11.07
2022-11-25T10:02:02.425Z,11.11
2022-11-25T10:03:02.495Z,11.06
2022-11-25T10:04:02.426Z,11.06
2022-11-25T10:05:02.444Z,11.04
2022-11-25T10:06:02.533Z,11.09
2022-11-25T10:07:02.491Z,11.07
2022-11-25T10:08:02.509Z,11.04
2022-11-25T10:09:02.529Z,11.04
2022-11-25T10:10:02.568Z,11.07
2022-11-25T10:11:02.577Z,11.04
2022-11-25T10:12:02.601Z,11.17
2022-11-25T10:13:02.621Z,11.09
2022-11-25T10:14:02.645Z,11.15
2022-11-25T10:15:02.666Z,11.15
2022-11-25T10:16:02.713Z,11.17
2022-11-25T10:17:02.710Z,11.22
2022-11-25T10:18:02.737Z,11.28
2022-11-25T10:19:02.769Z,11.27
2022-11-25T10:20:02.775Z,11.33
2022-11-25T10:21:02.799Z,11.32
2022-11-25T10:22:02.823Z,11.36
2022-11-25T10:23:02.845Z,11.40
2022-11-25T10:24:02.878Z,11.43
2022-11-25T10:25:02.887Z,11.44
2022-11-25T10:26:02.917Z,11.44
2022-11-25T10:27:02.932Z,11.40
2022-11-25T10:28:02.952Z,11.37
2022-11-25T10:29:02.978Z,11.47
2022-11-25T10:30:03.001Z,11.54
2022-11-25T10:31:03.091Z,11.57
2022-11-25T10:32:03.043Z,11.62
2022-11-25T10:33:03.071Z,11.72
2022-11-25T10:34:03.086Z,11.70
2022-11-25T10:35:03.113Z,11.75
2022-11-25T10:36:03.136Z,11.79
2022-11-25T10:37:03.158Z,11.72
2022-11-25T10:38:03.181Z,11.70
2022-11-25T10:39:03.201Z,11.86
2022-11-25T10:40:03.221Z,11.83
2022-11-25T10:41:03.245Z,11.82
2022-11-25T10:42:03.270Z,11.88
2022-11-25T10:43:03.292Z,11.80
2022-11-25T10:44:03.316Z,11.73
2022-11-25T10:45:03.341Z,11.73
2022-11-25T10:46:03.380Z,11.72
2022-11-25T10:47:18.296Z,11.78
2022-11-25T10:48:03.402Z,11.75
2022-11-25T10:49:03.426Z,11.72
2022-11-25T10:50:03.453Z,11.79
2022-11-25T10:51:03.481Z,11.73
2022-11-25T10:52:03.496Z,11.79
2022-11-25T10:53:03.538Z,11.75
2022-11-25T10:54:03.544Z,11.75
2022-11-25T10:55:03.576Z,11.69
2022-11-25T10:56:03.609Z,11.73
2022-11-25T10:57:03.607Z,11.79
2022-11-25T10:58:03.631Z,11.82
2022-11-25T10:59:03.655Z,11.78
2022-11-25T11:00:03.677Z,11.73
2022-11-25T11:01:03.701Z,11.73
2022-11-25T11:02:03.845Z,11.62
2022-11-25T11:03:03.793Z,11.76
2022-11-25T11:04:03.779Z,11.75
2022-11-25T11:05:03.826Z,11.72
2022-11-25T11:06:03.812Z,11.85
2022-11-25T11:07:03.833Z,11.86
2022-11-25T11:08:03.868Z,11.85
2022-11-25T11:09:03.886Z,11.94
2022-11-25T11:10:03.902Z,11.88
2022-11-25T11:11:03.921Z,11.98
2022-11-25T11:12:03.942Z,12.01
2022-11-25T11:13:03.971Z,11.99
2022-11-25T11:14:03.989Z,12.07
2022-11-25T11:15:04.014Z,12.02
2022-11-25T11:16:04.102Z,12.02
2022-11-25T11:17:04.068Z,12.04
2022-11-25T11:18:04.079Z,12.13
2022-11-25T11:19:04.104Z,12.02
2022-11-25T11:20:04.160Z,11.95
2022-11-25T11:21:04.151Z,11.98
2022-11-25T11:22:04.172Z,11.91
2022-11-25T11:23:08.702Z,12.02
2022-11-25T11:24:04.215Z,12.05
2022-11-25T11:25:04.241Z,12.07
2022-11-25T11:26:04.268Z,12.10
2022-11-25T11:27:04.285Z,12.02
2022-11-25T11:28:04.311Z,12.13
2022-11-25T11:29:04.330Z,12.13
2022-11-25T11:30:04.358Z,12.12
2022-11-25T11:31:04.402Z,12.20
2022-11-25T11:32:04.401Z,12.23
2022-11-25T11:33:04.438Z,12.21
2022-11-25T11:34:04.450Z,12.29
2022-11-25T11:35:04.482Z,12.19
2022-11-25T11:36:04.488Z,12.20
2022-11-25T11:37:04.514Z,12.16
2022-11-25T11:38:04.542Z,12.27
2022-11-25T11:39:04.567Z,12.14
2022-11-25T11:40:04.583Z,12.17
2022-11-25T11:41:04.608Z,12.13
2022-11-25T11:42:04.628Z,12.17
2022-11-25T11:43:04.648Z,12.17
2022-11-25T11:44:04.671Z,12.13
2022-11-25T11:45:04.700Z,12.19
2022-11-25T11:46:04.715Z,12.20
2022-11-25T11:47:04.765Z,12.10
2022-11-25T11:48:04.772Z,12.29
2022-11-25T11:49:04.793Z,12.23
2022-11-25T11:50:04.806Z,12.23
2022-11-25T11:51:04.831Z,12.13
2022-11-25T11:52:04.859Z,12.24
2022-11-25T11:53:04.879Z,12.31
2022-11-25T11:54:04.917Z,12.31
2022-11-25T11:55:04.924Z,12.39
2022-11-25T11:56:33.641Z,12.47
2022-11-25T11:57:04.969Z,12.59
2022-11-25T11:58:04.988Z,12.59
2022-11-25T11:59:05.021Z,12.72
2022-11-25T12:00:05.067Z,12.77
2022-11-25T12:01:05.060Z,12.65
2022-11-25T12:02:05.137Z,12.77
2022-11-25T12:03:05.168Z,12.75
2022-11-25T12:04:05.125Z,12.78
2022-11-25T12:05:05.187Z,12.95
2022-11-25T12:06:05.172Z,12.89
2022-11-25T12:07:05.196Z,12.95
2022-11-25T12:08:05.217Z,12.95
2022-11-25T12:09:05.245Z,12.95
2022-11-25T12:10:05.265Z,12.89
2022-11-25T12:11:05.288Z,13.05
2022-11-25T12:12:05.315Z,13.07
2022-11-25T12:13:05.337Z,13.08
2022-11-25T12:14:05.361Z,12.92
2022-11-25T12:15:05.390Z,13.04
2022-11-25T12:16:05.454Z,12.95
2022-11-25T12:17:05.430Z,12.97
2022-11-25T12:18:05.450Z,12.96
2022-11-25T12:19:05.477Z,13.03
2022-11-25T12:20:05.507Z,12.85
2022-11-25T12:21:05.527Z,12.87
2022-11-25T12:22:05.541Z,12.93
2022-11-25T12:23:05.597Z,12.90
2022-11-25T12:24:05.607Z,12.90
2022-11-25T12:25:05.612Z,12.89
2022-11-25T12:26:05.664Z,12.82
2022-11-25T12:27:05.660Z,12.74
2022-11-25T12:28:05.681Z,12.72
2022-11-25T12:29:05.709Z,12.74
2022-11-25T12:30:05.731Z,12.70
2022-11-25T12:31:05.755Z,12.67
2022-11-25T12:32:05.858Z,12.70
2022-11-25T12:33:05.797Z,12.68
2022-11-25T12:34:05.817Z,12.64
2022-11-25T12:35:05.840Z,12.59
2022-11-25T12:36:05.868Z,12.70
2022-11-25T12:37:09.441Z,12.60
2022-11-25T12:38:05.913Z,12.62
2022-11-25T12:39:05.943Z,12.64
2022-11-25T12:40:05.955Z,12.62
2022-11-25T12:41:05.977Z,12.54
2022-11-25T12:42:06.008Z,12.68
2022-11-25T12:43:06.021Z,12.65
2022-11-25T12:44:06.049Z,12.64
2022-11-25T12:45:06.075Z,12.60
2022-11-25T12:46:06.174Z,12.57
2022-11-25T12:47:06.111Z,12.54
2022-11-25T12:48:06.137Z,12.50
2022-11-25T12:49:06.173Z,12.50
2022-11-25T12:50:06.184Z,12.41
2022-11-25T12:51:06.205Z,12.50
2022-11-25T12:52:06.232Z,12.46
2022-11-25T12:53:06.255Z,12.35
2022-11-25T12:54:06.277Z,12.42
2022-11-25T12:55:06.310Z,12.39
2022-11-25T12:56:06.321Z,12.41
2022-11-25T12:57:06.345Z,12.32
2022-11-25T12:58:06.373Z,12.35
2022-11-25T12:59:06.419Z,12.29
2022-11-25T13:00:39.310Z,12.29
2022-11-25T13:01:06.473Z,12.28
2022-11-25T13:02:06.490Z,12.24
2022-11-25T13:03:12.302Z,12.29
2022-11-25T13:04:06.503Z,12.31
2022-11-25T13:05:32.872Z,12.34
2022-11-25T13:06:06.565Z,12.34
2022-11-25T13:07:06.617Z,12.34
2022-11-25T13:08:06.593Z,12.32
2022-11-25T13:09:06.617Z,12.46
2022-11-25T13:10:06.640Z,12.42
2022-11-25T13:11:06.916Z,12.39
2022-11-25T13:12:07.038Z,12.52
2022-11-25T13:13:07.192Z,12.46
2022-11-25T13:14:07.110Z,12.49
2022-11-25T13:15:07.095Z,12.49
2022-11-25T13:16:07.317Z,12.50
2022-11-25T13:17:07.180Z,12.52
2022-11-25T13:18:06.923Z,12.64
2022-11-25T13:19:06.849Z,12.64
2022-11-25T13:20:06.865Z,12.64
2022-11-25T13:21:06.889Z,12.64
2022-11-25T13:22:06.926Z,12.59
2022-11-25T13:23:06.938Z,12.57
2022-11-25T13:24:06.956Z,12.53
2022-11-25T13:25:07.001Z,12.52
2022-11-25T13:26:07.005Z,12.50
2022-11-25T13:27:07.026Z,12.56
2022-11-25T13:28:07.047Z,12.62